This is the latest recevied weather packets stored in our database for station/object W8AN. If no packets are shown the sender has not sent any weather packets the latest 10 day(s).
| Time | Temp. | Humidity | Pressure | Rain* | Wind** | Luminosity | Snow |
|---|---|---|---|---|---|---|---|
| 1777842577 | 16.11° C | 36% | 4266.4 hPa | 0 mm | - | 207 W/m² | - |
| 1777842273 | 16.11° C | 35% | 4266.5 hPa | 0 mm | - | 349 W/m² | - |
| 1777841968 | 16.11° C | 37% | 4266.5 hPa | 0 mm | - | 471 W/m² | - |
| 1777841666 | 16.11° C | 39% | 4266.4 hPa | 0 mm | - | 474 W/m² | - |
| 1777841361 | 16.11° C | 35% | 4266.6 hPa | 0 mm | - | 231 W/m² | - |
| 1777841059 | 16.67° C | 37% | 4266.8 hPa | 0 mm | - | 525 W/m² | - |
| 1777840756 | 16.67° C | 36% | 4266.8 hPa | 0 mm | - | 298 W/m² | - |
| 1777840453 | 16.11° C | 35% | 4267 hPa | 0 mm | - | 436 W/m² | - |
| 1777840150 | 16.67° C | 33% | 4266.9 hPa | 0 mm | - | 432 W/m² | - |
| 1777839849 | 16.11° C | 36% | 4266.7 hPa | 0 mm | - | 503 W/m² | - |
| 1777839547 | 16.11° C | 38% | 4266.7 hPa | 0 mm | - | 572 W/m² | - |
| 1777839243 | 16.11° C | 36% | 4266.8 hPa | 0 mm | - | 326 W/m² | - |
| 1777838941 | 16.11° C | 35% | 4266.8 hPa | 0 mm | - | 367 W/m² | - |
| 1777838636 | 16.67° C | 34% | 4267 hPa | 0 mm | - | 496 W/m² | - |
| 1777838334 | 17.22° C | 37% | 4266.9 hPa | 0 mm | - | 572 W/m² | - |
| 1777838030 | 17.22° C | 34% | 4267.1 hPa | 0 mm | - | 606 W/m² | - |
| 1777837728 | 16.67° C | 37% | 4267.1 hPa | 0 mm | - | 588 W/m² | - |
| 1777837423 | 16.67° C | 36% | 4267 hPa | 0 mm | - | 489 W/m² | - |
| 1777837120 | 16.67° C | 34% | 4267.4 hPa | 0 mm | - | 653 W/m² | - |
| 1777836816 | 16.67° C | 34% | 4267.3 hPa | 0 mm | - | 655 W/m² | - |
| 1777836512 | 16.67° C | 35% | 4267.3 hPa | 0 mm | - | 661 W/m² | - |
| 1777836207 | 16.11° C | 34% | 4267.3 hPa | 0 mm | - | 680 W/m² | - |
| 1777835904 | 16.11° C | 34% | 4267.5 hPa | 0 mm | - | 683 W/m² | - |
| 1777835601 | 16.11° C | 36% | 4267.5 hPa | 0 mm | - | 693 W/m² | - |
| 1777835298 | 16.11° C | 36% | 4267.7 hPa | 0 mm | - | 691 W/m² | - |
* Rain latest hour (hover to see other rain measurements)
** Current wind speed in m/s (hover to see current wind gust speed)